createdAt,value
2019-06-20T00:01:52.294Z,96.70
2019-06-20T00:04:21.143Z,96.80
2019-06-20T00:06:49.910Z,96.80
2019-06-20T00:09:18.698Z,96.90
2019-06-20T00:11:47.604Z,97.00
2019-06-20T00:14:16.647Z,97.00
2019-06-20T00:16:45.519Z,97.00
2019-06-20T00:19:14.139Z,97.00
2019-06-20T00:21:43.005Z,97.00
2019-06-20T00:24:11.774Z,96.90
2019-06-20T00:26:40.579Z,96.90
2019-06-20T00:29:09.317Z,96.90
2019-06-20T00:31:38.128Z,96.90
2019-06-20T00:34:06.939Z,96.80
2019-06-20T00:36:35.782Z,96.70
2019-06-20T00:39:07.270Z,96.60
2019-06-20T00:41:36.458Z,96.50
2019-06-20T00:44:05.394Z,96.50
2019-06-20T00:46:34.241Z,96.40
2019-06-20T00:49:03.111Z,96.50
2019-06-20T00:51:32.119Z,96.40
2019-06-20T00:54:00.982Z,96.30
2019-06-20T00:56:29.818Z,96.30
2019-06-20T00:58:58.591Z,96.20
2019-06-20T01:01:27.396Z,96.00
2019-06-20T01:03:56.152Z,96.00
2019-06-20T01:06:24.997Z,95.70
2019-06-20T01:08:53.684Z,95.40
2019-06-20T01:11:22.360Z,95.10
2019-06-20T01:13:52.883Z,94.50
2019-06-20T01:16:21.949Z,94.50
2019-06-20T01:18:50.758Z,94.00
2019-06-20T01:21:19.530Z,93.50
2019-06-20T01:23:48.365Z,93.30
2019-06-20T01:26:17.196Z,92.90
2019-06-20T01:28:46.075Z,92.50
2019-06-20T01:31:14.824Z,92.20
2019-06-20T01:33:43.591Z,92.20
2019-06-20T01:36:12.366Z,92.10
2019-06-20T01:38:41.070Z,91.90
2019-06-20T01:41:09.869Z,91.80
2019-06-20T01:43:50.133Z,91.40
2019-06-20T01:46:09.247Z,91.60
2019-06-20T01:48:38.061Z,91.30
2019-06-20T01:51:06.866Z,91.20
2019-06-20T01:53:35.587Z,91.10
2019-06-20T01:56:04.486Z,91.10
2019-06-20T01:58:33.312Z,91.00
2019-06-20T02:01:02.205Z,91.20
2019-06-20T02:03:31.146Z,91.20
2019-06-20T02:05:59.955Z,91.50
2019-06-20T02:08:28.713Z,91.60
2019-06-20T02:10:57.408Z,91.70
2019-06-20T02:13:26.182Z,91.90
2019-06-20T02:15:55.045Z,91.90
2019-06-20T02:18:23.798Z,92.20
2019-06-20T02:20:54.105Z,92.30
2019-06-20T02:23:23.422Z,92.40
2019-06-20T02:25:52.802Z,92.40
2019-06-20T02:28:22.236Z,92.60
2019-06-20T02:30:51.364Z,92.60
2019-06-20T02:33:20.155Z,92.70
2019-06-20T02:35:49.143Z,92.80
2019-06-20T02:38:18.941Z,93.00
2019-06-20T02:40:47.725Z,93.00
2019-06-20T02:43:16.468Z,93.20
2019-06-20T02:45:45.249Z,93.30
2019-06-20T02:48:14.006Z,93.30
2019-06-20T02:50:42.770Z,93.50
2019-06-20T02:53:11.914Z,93.70
2019-06-20T02:55:41.055Z,93.80
2019-06-20T02:58:09.782Z,93.90
2019-06-20T03:00:39.753Z,94.00
2019-06-20T03:03:08.594Z,94.10
2019-06-20T03:05:37.319Z,94.30
2019-06-20T03:08:06.176Z,94.30
2019-06-20T03:10:35.059Z,94.30
2019-06-20T03:13:03.873Z,94.20
2019-06-20T03:15:32.814Z,94.20
2019-06-20T03:18:01.608Z,94.30
2019-06-20T03:20:30.290Z,94.00
2019-06-20T03:22:59.105Z,93.90
2019-06-20T03:25:27.908Z,94.00
2019-06-20T03:27:56.685Z,94.10
2019-06-20T03:30:25.756Z,94.30
2019-06-20T03:32:54.443Z,94.40
2019-06-20T03:35:23.227Z,94.60
2019-06-20T03:37:52.065Z,94.60
2019-06-20T03:40:21.044Z,94.70
2019-06-20T03:42:49.996Z,94.70
2019-06-20T03:45:18.779Z,94.70
2019-06-20T03:47:47.529Z,94.70
2019-06-20T03:50:16.485Z,94.60
2019-06-20T03:52:45.154Z,94.60
2019-06-20T03:55:14.021Z,94.70
2019-06-20T03:57:42.725Z,94.60
2019-06-20T04:00:12.302Z,94.80
2019-06-20T04:02:41.044Z,94.80
2019-06-20T04:05:10.042Z,94.80
2019-06-20T04:07:38.795Z,94.80
2019-06-20T04:10:07.988Z,94.80
2019-06-20T04:12:36.716Z,94.60
2019-06-20T04:15:18.435Z,94.60
2019-06-20T04:17:37.009Z,94.70
2019-06-20T04:20:06.671Z,94.70
2019-06-20T04:22:35.557Z,94.60
2019-06-20T04:25:04.634Z,94.70
2019-06-20T04:27:33.407Z,94.70
2019-06-20T04:30:02.261Z,94.70
2019-06-20T04:32:31.116Z,94.70
2019-06-20T04:35:00.069Z,94.70
2019-06-20T04:37:28.884Z,94.70
2019-06-20T04:39:57.642Z,94.60
2019-06-20T04:42:26.503Z,94.20
2019-06-20T04:44:56.743Z,94.30
2019-06-20T04:47:25.619Z,94.20
2019-06-20T04:49:54.303Z,94.20
2019-06-20T04:52:23.112Z,93.70
2019-06-20T04:54:51.846Z,92.70
2019-06-20T04:57:20.718Z,92.50
2019-06-20T04:59:50.899Z,90.70
2019-06-20T05:02:21.288Z,88.60
2019-06-20T05:04:50.092Z,89.30
2019-06-20T05:07:19.817Z,89.60
2019-06-20T05:09:48.566Z,90.50
2019-06-20T05:12:17.361Z,90.30
2019-06-20T05:14:46.099Z,89.30
2019-06-20T05:17:14.825Z,89.00
2019-06-20T05:19:43.549Z,89.00
2019-06-20T05:22:12.371Z,88.00
2019-06-20T05:24:41.049Z,88.90
2019-06-20T05:27:09.810Z,89.10
2019-06-20T05:29:38.569Z,88.70
2019-06-20T05:32:07.376Z,88.20
2019-06-20T05:34:36.351Z,87.80
2019-06-20T05:37:05.186Z,87.80
2019-06-20T05:39:34.048Z,85.90
2019-06-20T05:42:02.768Z,83.70
2019-06-20T05:44:31.501Z,83.80
2019-06-20T05:47:12.022Z,83.70
2019-06-20T05:49:30.725Z,83.80
2019-06-20T05:51:59.501Z,81.30
2019-06-20T05:54:28.260Z,80.90
2019-06-20T05:56:57.132Z,82.00
2019-06-20T05:59:25.887Z,80.00
2019-06-20T06:01:56.340Z,79.30
2019-06-20T06:04:25.128Z,77.10
2019-06-20T06:06:53.798Z,77.60
2019-06-20T06:09:22.575Z,76.40
2019-06-20T06:11:51.974Z,76.30
2019-06-20T06:14:21.053Z,74.90
2019-06-20T06:16:49.899Z,75.00
2019-06-20T06:19:18.681Z,72.40
2019-06-20T06:21:47.419Z,69.20
2019-06-20T06:24:16.216Z,69.40
2019-06-20T06:26:44.992Z,68.00
2019-06-20T06:29:13.726Z,68.20
2019-06-20T06:31:42.490Z,69.50
2019-06-20T06:34:11.246Z,70.90
2019-06-20T06:36:40.087Z,71.00
2019-06-20T06:39:10.135Z,70.10
2019-06-20T06:41:38.940Z,72.30
2019-06-20T06:44:08.550Z,70.50
2019-06-20T06:46:45.876Z,67.80
2019-06-20T06:49:08.186Z,68.90
2019-06-20T06:51:38.274Z,70.30
2019-06-20T06:54:07.347Z,70.30
2019-06-20T06:56:36.205Z,70.80
2019-06-20T06:59:05.310Z,69.20
2019-06-20T07:01:34.066Z,67.30
2019-06-20T07:04:02.949Z,65.60
2019-06-20T07:06:31.727Z,62.50
2019-06-20T07:09:00.485Z,61.00
2019-06-20T07:11:29.447Z,60.20
2019-06-20T07:13:58.283Z,57.50
2019-06-20T07:16:27.134Z,56.10
2019-06-20T07:18:56.193Z,55.40
2019-06-20T07:21:25.038Z,50.00
2019-06-20T07:23:53.930Z,45.30
2019-06-20T07:26:22.864Z,37.40
2019-06-20T07:28:51.710Z,34.50
2019-06-20T07:31:20.483Z,37.80
2019-06-20T07:33:49.337Z,38.90
2019-06-20T07:36:18.176Z,42.80
2019-06-20T07:38:47.119Z,45.60
2019-06-20T07:41:15.892Z,43.90
2019-06-20T07:43:44.743Z,42.60
2019-06-20T07:46:13.555Z,44.50
2019-06-20T07:48:42.263Z,46.70
2019-06-20T07:51:11.082Z,46.60
2019-06-20T07:53:39.968Z,48.20
2019-06-20T07:56:09.581Z,46.40
2019-06-20T07:58:38.532Z,46.30
2019-06-20T08:01:07.358Z,41.70
2019-06-20T08:03:36.193Z,35.20
2019-06-20T08:06:05.238Z,26.00
2019-06-20T08:08:33.991Z,22.70
2019-06-20T08:11:02.795Z,21.70
2019-06-20T08:13:31.598Z,20.40
2019-06-20T08:16:03.474Z,18.10
2019-06-20T08:18:30.925Z,20.90
2019-06-20T08:20:59.747Z,19.80
2019-06-20T08:23:28.734Z,16.60
2019-06-20T08:25:58.807Z,14.10
2019-06-20T08:28:28.275Z,13.80
2019-06-20T08:30:57.689Z,13.50
2019-06-20T08:33:27.540Z,16.50
2019-06-20T08:35:57.539Z,20.00
2019-06-20T08:38:26.968Z,26.60
2019-06-20T08:40:57.982Z,28.40
2019-06-20T08:43:26.232Z,21.70
2019-06-20T08:45:56.259Z,16.10
2019-06-20T08:48:25.745Z,14.80
2019-06-20T08:50:56.800Z,14.70
2019-06-20T08:53:25.127Z,17.30
2019-06-20T08:55:54.692Z,17.80
2019-06-20T08:58:24.707Z,19.40
2019-06-20T09:00:55.478Z,19.30
2019-06-20T09:03:24.341Z,19.20
2019-06-20T09:05:54.928Z,14.10
2019-06-20T09:08:23.640Z,11.20
2019-06-20T09:10:54.118Z,8.10
2019-06-20T09:13:22.992Z,6.00
2019-06-20T09:15:52.424Z,6.10
2019-06-20T09:18:22.187Z,10.10
2019-06-20T09:20:52.694Z,12.10
2019-06-20T09:23:21.515Z,15.80
2019-06-20T09:25:50.933Z,14.50
2019-06-20T09:28:20.958Z,11.00
2019-06-20T09:30:50.482Z,9.60
2019-06-20T09:33:20.705Z,8.30
2019-06-20T09:35:49.480Z,7.30
2019-06-20T09:38:18.368Z,7.80
2019-06-20T09:40:47.128Z,4.20
2019-06-20T09:43:27.241Z,3.90
2019-06-20T09:45:46.785Z,4.50
2019-06-20T09:48:15.500Z,2.90
2019-06-20T09:50:44.309Z,3.00
2019-06-20T09:53:13.179Z,3.20
2019-06-20T09:55:41.950Z,1.00
2019-06-20T09:58:10.850Z,1.00
2019-06-20T10:00:39.910Z,1.00
2019-06-20T10:03:08.780Z,1.00
2019-06-20T10:05:37.696Z,1.00
2019-06-20T10:08:06.712Z,1.00
2019-06-20T10:10:36.085Z,2.80
2019-06-20T10:13:05.248Z,6.60
2019-06-20T10:15:36.730Z,8.60
2019-06-20T10:18:05.709Z,6.30
2019-06-20T10:20:34.989Z,2.30
2019-06-20T10:23:03.869Z,1.00
2019-06-20T10:25:32.705Z,2.20
2019-06-20T10:28:01.570Z,4.00
2019-06-20T10:30:30.505Z,4.80
2019-06-20T10:32:59.409Z,4.60
2019-06-20T10:35:28.473Z,3.90
2019-06-20T10:37:57.427Z,2.90
2019-06-20T10:40:27.774Z,3.50
2019-06-20T10:42:57.005Z,3.90
2019-06-20T10:45:26.937Z,4.20
2019-06-20T10:47:55.894Z,3.50
2019-06-20T10:50:26.124Z,4.00
2019-06-20T10:52:55.510Z,4.10
2019-06-20T10:55:24.980Z,4.20
2019-06-20T10:57:53.807Z,4.70
2019-06-20T11:00:30.961Z,5.90
2019-06-20T11:02:54.965Z,7.00
2019-06-20T11:05:23.831Z,7.30
2019-06-20T11:07:52.772Z,6.60
2019-06-20T11:10:22.277Z,6.40
2019-06-20T11:12:55.765Z,5.40
2019-06-20T11:15:22.254Z,4.30
2019-06-20T11:17:51.089Z,3.50
2019-06-20T11:20:21.415Z,3.80
2019-06-20T11:22:50.244Z,3.20
2019-06-20T11:25:19.998Z,3.20
2019-06-20T11:27:48.858Z,2.80
2019-06-20T11:30:20.568Z,2.60
2019-06-20T11:32:49.467Z,2.40
2019-06-20T11:35:18.606Z,2.00
2019-06-20T11:37:47.450Z,2.90
2019-06-20T11:40:16.679Z,2.40
2019-06-20T11:42:46.730Z,2.20
2019-06-20T11:45:17.904Z,3.00
2019-06-20T11:47:47.346Z,2.60
2019-06-20T11:50:17.933Z,1.00
2019-06-20T11:52:46.776Z,1.00
2019-06-20T11:55:17.659Z,1.00
2019-06-20T11:57:46.456Z,1.00
2019-06-20T12:00:16.262Z,1.00
2019-06-20T12:02:46.137Z,1.00
2019-06-20T12:05:15.929Z,1.00
2019-06-20T12:07:45.633Z,1.00
2019-06-20T12:10:17.039Z,1.00
2019-06-20T12:12:46.947Z,1.00
2019-06-20T12:15:17.074Z,1.00
2019-06-20T12:17:47.203Z,1.00
2019-06-20T12:20:16.730Z,1.00
2019-06-20T12:22:46.636Z,1.00
2019-06-20T12:25:16.507Z,1.00
2019-06-20T12:27:45.591Z,1.00
2019-06-20T12:30:16.784Z,1.00
2019-06-20T12:32:46.831Z,1.00
2019-06-20T12:35:16.169Z,1.00
2019-06-20T12:37:45.261Z,1.00
2019-06-20T12:40:14.828Z,1.00
2019-06-20T12:42:44.865Z,1.00
2019-06-20T12:45:16.800Z,1.00
2019-06-20T12:47:46.072Z,1.00
2019-06-20T12:50:16.177Z,1.00
2019-06-20T12:52:45.765Z,1.00
2019-06-20T12:55:16.727Z,1.00
2019-06-20T12:57:46.359Z,1.00
2019-06-20T13:00:16.219Z,1.00
2019-06-20T13:02:45.487Z,1.00
2019-06-20T13:05:16.981Z,1.00
2019-06-20T13:07:46.458Z,1.00
2019-06-20T13:10:16.306Z,1.00
2019-06-20T13:12:46.392Z,1.00
2019-06-20T13:15:15.912Z,1.20
2019-06-20T13:17:45.044Z,1.00
2019-06-20T13:20:14.823Z,1.10
2019-06-20T13:22:44.774Z,1.20
2019-06-20T13:25:14.248Z,1.90
2019-06-20T13:27:43.473Z,1.80
2019-06-20T13:30:14.126Z,2.40
2019-06-20T13:32:43.825Z,3.50
2019-06-20T13:35:13.824Z,4.00
2019-06-20T13:37:43.545Z,4.10
2019-06-20T13:40:15.453Z,4.10
2019-06-20T13:42:45.751Z,4.20
2019-06-20T13:45:17.726Z,4.00
2019-06-20T13:47:47.826Z,3.50
2019-06-20T13:50:17.156Z,3.30
2019-06-20T13:52:47.219Z,3.50
2019-06-20T13:55:16.583Z,3.90
2019-06-20T13:57:47.031Z,3.50
2019-06-20T14:00:18.292Z,3.70
2019-06-20T14:02:48.972Z,3.10
2019-06-20T14:05:19.665Z,3.60
2019-06-20T14:07:53.347Z,3.00
2019-06-20T14:10:20.414Z,3.30
2019-06-20T14:12:49.585Z,3.80
2019-06-20T14:15:19.679Z,4.20
2019-06-20T14:17:49.757Z,5.20
2019-06-20T14:20:19.686Z,5.10
2019-06-20T14:22:49.476Z,5.50
2019-06-20T14:25:19.033Z,7.20
2019-06-20T14:27:48.974Z,8.20
2019-06-20T14:30:19.235Z,7.50
2019-06-20T14:32:49.437Z,7.80
2019-06-20T14:35:18.802Z,8.00
2019-06-20T14:37:49.217Z,8.30
2019-06-20T14:40:19.243Z,8.70
2019-06-20T14:42:48.443Z,10.00
2019-06-20T14:45:18.344Z,10.60
2019-06-20T14:47:47.128Z,13.10
2019-06-20T14:50:16.205Z,14.70
2019-06-20T14:52:46.633Z,16.40
2019-06-20T14:55:15.790Z,17.60
2019-06-20T14:57:45.247Z,17.80
2019-06-20T15:00:15.748Z,17.80
2019-06-20T15:02:45.820Z,18.90
2019-06-20T15:05:16.752Z,20.10
2019-06-20T15:07:47.218Z,20.40
2019-06-20T15:10:16.643Z,21.70
2019-06-20T15:12:47.431Z,22.70
2019-06-20T15:15:17.798Z,23.70
2019-06-20T15:17:49.487Z,24.40
2019-06-20T15:20:17.700Z,24.80
2019-06-20T15:22:47.408Z,26.20
2019-06-20T15:25:17.652Z,27.50
2019-06-20T15:27:47.984Z,28.30
2019-06-20T15:30:17.875Z,29.00
2019-06-20T15:32:59.277Z,32.50
2019-06-20T15:35:17.497Z,39.00
2019-06-20T15:37:47.770Z,37.60
2019-06-20T15:40:17.299Z,33.50
2019-06-20T15:42:47.463Z,35.20
2019-06-20T15:45:17.047Z,33.00
2019-06-20T15:47:45.914Z,32.90
2019-06-20T15:50:15.473Z,31.80
2019-06-20T15:52:44.399Z,31.70
2019-06-20T15:55:13.412Z,30.80
2019-06-20T15:57:42.211Z,33.50
2019-06-20T16:00:12.948Z,36.40
2019-06-20T16:02:41.845Z,38.60
2019-06-20T16:05:11.198Z,38.80
2019-06-20T16:07:40.183Z,38.70
2019-06-20T16:10:10.242Z,38.20
2019-06-20T16:12:39.088Z,36.90
2019-06-20T16:15:09.640Z,36.20
2019-06-20T16:17:40.310Z,30.50
2019-06-20T16:20:10.010Z,30.20
2019-06-20T16:22:39.737Z,28.20
2019-06-20T16:25:08.805Z,27.40
2019-06-20T16:27:39.556Z,26.50
2019-06-20T16:30:09.779Z,26.40
2019-06-20T16:32:38.654Z,26.40
2019-06-20T16:35:08.321Z,28.10
2019-06-20T16:37:37.531Z,28.90
2019-06-20T16:40:08.791Z,28.80
2019-06-20T16:42:37.623Z,29.20
2019-06-20T16:45:07.643Z,30.00
2019-06-20T16:47:36.467Z,29.80
2019-06-20T16:50:07.266Z,29.90
2019-06-20T16:52:36.256Z,29.90
2019-06-20T16:55:06.688Z,31.20
2019-06-20T16:57:35.433Z,34.40
2019-06-20T17:00:09.696Z,35.30
2019-06-20T17:02:38.539Z,38.60
2019-06-20T17:05:10.350Z,43.40
2019-06-20T17:07:39.157Z,43.50
2019-06-20T17:10:09.670Z,43.80
2019-06-20T17:12:39.216Z,42.80
2019-06-20T17:15:08.797Z,42.40
2019-06-20T17:17:37.809Z,40.40
2019-06-20T17:20:08.670Z,41.80
2019-06-20T17:22:37.847Z,40.80
2019-06-20T17:25:07.824Z,41.20
2019-06-20T17:27:36.626Z,41.10
2019-06-20T17:30:08.198Z,42.20
2019-06-20T17:32:37.207Z,35.60
2019-06-20T17:35:08.652Z,33.00
2019-06-20T17:37:37.644Z,29.90
2019-06-20T17:40:08.599Z,27.50
2019-06-20T17:42:37.589Z,25.70
2019-06-20T17:45:08.781Z,25.70
2019-06-20T17:47:37.567Z,24.80
2019-06-20T17:50:07.768Z,25.70
2019-06-20T17:52:36.570Z,24.70
2019-06-20T17:55:07.229Z,25.00
2019-06-20T17:57:36.478Z,22.90
2019-06-20T18:00:08.552Z,22.30
2019-06-20T18:02:37.320Z,23.10
2019-06-20T18:05:07.980Z,22.70
2019-06-20T18:07:36.824Z,24.00
2019-06-20T18:10:07.243Z,24.60
2019-06-20T18:12:36.035Z,25.30
2019-06-20T18:15:08.439Z,24.10
2019-06-20T18:17:37.274Z,25.10
2019-06-20T18:20:07.212Z,25.80
2019-06-20T18:22:36.068Z,26.80
2019-06-20T18:25:06.136Z,26.60
2019-06-20T18:27:34.928Z,26.70
2019-06-20T18:30:06.553Z,27.10
2019-06-20T18:32:35.382Z,26.30
2019-06-20T18:35:06.973Z,26.70
2019-06-20T18:37:35.909Z,27.90
2019-06-20T18:40:07.002Z,28.40
2019-06-20T18:42:35.899Z,29.50
2019-06-20T18:45:06.520Z,28.80
2019-06-20T18:47:35.466Z,27.10
2019-06-20T18:50:05.911Z,27.10
2019-06-20T18:52:48.154Z,26.60
2019-06-20T18:55:07.200Z,26.40
2019-06-20T18:57:36.032Z,26.30
2019-06-20T19:00:07.814Z,26.10
2019-06-20T19:02:36.664Z,25.70
2019-06-20T19:05:07.592Z,25.50
2019-06-20T19:07:36.576Z,24.50
2019-06-20T19:10:07.508Z,24.40
2019-06-20T19:12:36.645Z,25.40
2019-06-20T19:15:07.080Z,26.20
2019-06-20T19:17:35.960Z,26.20
2019-06-20T19:20:07.422Z,26.60
2019-06-20T19:22:37.922Z,27.00
2019-06-20T19:25:08.579Z,27.30
2019-06-20T19:27:46.066Z,27.40
2019-06-20T19:30:10.469Z,28.50
2019-06-20T19:32:39.462Z,28.30
2019-06-20T19:35:10.406Z,28.60
2019-06-20T19:37:39.477Z,28.20
2019-06-20T19:40:09.981Z,29.40
2019-06-20T19:42:39.145Z,30.00
2019-06-20T19:45:10.479Z,30.80
2019-06-20T19:47:39.912Z,31.90
2019-06-20T19:50:09.341Z,32.00
2019-06-20T19:52:38.695Z,32.80
2019-06-20T19:55:08.246Z,32.80
2019-06-20T19:57:37.043Z,33.60
2019-06-20T20:00:08.493Z,33.60
2019-06-20T20:02:37.263Z,34.90
2019-06-20T20:05:18.317Z,35.10
2019-06-20T20:07:38.705Z,36.30
2019-06-20T20:10:09.283Z,37.00
2019-06-20T20:12:38.336Z,38.00
2019-06-20T20:15:09.361Z,39.50
2019-06-20T20:17:38.182Z,41.00
2019-06-20T20:20:08.038Z,42.30
2019-06-20T20:22:36.843Z,42.30
2019-06-20T20:25:07.612Z,44.00
2019-06-20T20:27:36.429Z,44.30
2019-06-20T20:30:08.037Z,44.90
2019-06-20T20:32:37.007Z,44.90
2019-06-20T20:35:06.538Z,45.40
2019-06-20T20:37:36.507Z,46.10
2019-06-20T20:40:07.294Z,46.10
2019-06-20T20:42:36.256Z,46.50
2019-06-20T20:45:08.028Z,47.40
2019-06-20T20:47:36.870Z,47.50
2019-06-20T20:50:07.731Z,48.10
2019-06-20T20:52:36.654Z,48.50
2019-06-20T20:55:06.620Z,48.30
2019-06-20T20:57:35.461Z,48.10
2019-06-20T21:00:08.361Z,47.60
2019-06-20T21:02:37.140Z,47.60
2019-06-20T21:05:08.221Z,47.30
2019-06-20T21:07:39.150Z,46.70
2019-06-20T21:10:08.102Z,46.80
2019-06-20T21:12:36.933Z,46.40
2019-06-20T21:15:07.357Z,46.90
2019-06-20T21:17:36.248Z,46.30
2019-06-20T21:20:07.383Z,46.90
2019-06-20T21:22:36.185Z,46.70
2019-06-20T21:25:06.840Z,46.80
2019-06-20T21:27:35.725Z,47.20
2019-06-20T21:30:07.349Z,47.10
2019-06-20T21:32:36.385Z,47.20
2019-06-20T21:35:06.976Z,47.00
2019-06-20T21:37:35.674Z,47.60
2019-06-20T21:40:06.128Z,47.40
2019-06-20T21:42:35.095Z,48.40
2019-06-20T21:45:05.621Z,48.50
2019-06-20T21:47:36.038Z,47.70
2019-06-20T21:50:07.841Z,48.00
2019-06-20T21:52:37.179Z,48.60
2019-06-20T21:55:07.557Z,48.00
2019-06-20T21:57:36.370Z,48.60
2019-06-20T22:00:07.950Z,48.00
2019-06-20T22:02:36.716Z,48.40
2019-06-20T22:05:07.705Z,49.70
2019-06-20T22:07:36.592Z,50.20
2019-06-20T22:10:07.222Z,50.90
2019-06-20T22:12:36.667Z,51.60
2019-06-20T22:15:07.228Z,51.70
2019-06-20T22:17:36.097Z,52.70
2019-06-20T22:20:08.291Z,52.80
2019-06-20T22:22:37.042Z,53.20
2019-06-20T22:25:07.738Z,54.10
2019-06-20T22:27:36.792Z,54.20
2019-06-20T22:30:10.526Z,54.70
2019-06-20T22:32:39.350Z,55.60
2019-06-20T22:35:09.209Z,55.80
2019-06-20T22:37:41.471Z,56.30
2019-06-20T22:40:11.231Z,56.60
2019-06-20T22:42:40.106Z,57.10
2019-06-20T22:45:11.089Z,58.50
2019-06-20T22:47:39.861Z,57.90
2019-06-20T22:50:09.213Z,58.60
2019-06-20T22:52:38.023Z,59.00
2019-06-20T22:55:08.227Z,60.00
2019-06-20T22:57:37.103Z,60.70
2019-06-20T23:00:08.986Z,62.00
2019-06-20T23:02:37.971Z,62.50
2019-06-20T23:05:07.690Z,63.40
2019-06-20T23:07:36.538Z,63.60
2019-06-20T23:10:11.440Z,64.00
2019-06-20T23:12:40.375Z,65.20
2019-06-20T23:15:09.741Z,66.00
2019-06-20T23:17:38.542Z,67.10
2019-06-20T23:20:08.585Z,69.10
2019-06-20T23:22:37.470Z,69.80
2019-06-20T23:25:07.978Z,70.00
2019-06-20T23:27:37.786Z,71.00
2019-06-20T23:30:09.539Z,71.90
2019-06-20T23:32:38.643Z,71.70
2019-06-20T23:35:08.007Z,71.90
2019-06-20T23:37:36.866Z,71.90
2019-06-20T23:40:07.878Z,72.40
2019-06-20T23:42:36.928Z,72.90
2019-06-20T23:45:06.535Z,73.70
2019-06-20T23:47:35.713Z,74.90
2019-06-20T23:50:06.159Z,75.40
2019-06-20T23:52:36.470Z,76.60
2019-06-20T23:55:07.316Z,77.80
2019-06-20T23:57:36.039Z,77.90
